sensor_id;sensor_type;location;lat;lon;timestamp;P1;durP1;ratioP1;P2;durP2;ratioP2
17496;SDS011;62150;43.582;1.456;2023-02-26T07:29:15;5.93;;;2.33;;
17496;SDS011;62150;43.582;1.456;2023-02-26T07:31:43;6.07;;;2.87;;
17496;SDS011;62150;43.582;1.456;2023-02-26T07:34:11;5.63;;;2.70;;
17496;SDS011;62150;43.582;1.456;2023-02-26T07:36:39;6.27;;;2.67;;
17496;SDS011;62150;43.582;1.456;2023-02-26T07:39:06;5.13;;;2.40;;
17496;SDS011;62150;43.582;1.456;2023-02-26T07:41:34;5.27;;;2.50;;
17496;SDS011;62150;43.582;1.456;2023-02-26T07:44:01;5.33;;;2.60;;
17496;SDS011;62150;43.582;1.456;2023-02-26T07:46:30;8.47;;;3.00;;
17496;SDS011;62150;43.582;1.456;2023-02-26T07:48:58;7.00;;;2.60;;
17496;SDS011;62150;43.582;1.456;2023-02-26T07:51:25;6.13;;;2.30;;
17496;SDS011;62150;43.582;1.456;2023-02-26T07:53:53;5.03;;;2.40;;
17496;SDS011;62150;43.582;1.456;2023-02-26T07:56:20;6.27;;;2.63;;
17496;SDS011;62150;43.582;1.456;2023-02-26T07:58:48;4.13;;;2.37;;
17496;SDS011;62150;43.582;1.456;2023-02-26T08:01:16;7.77;;;2.40;;
17496;SDS011;62150;43.582;1.456;2023-02-26T08:03:45;4.87;;;2.40;;
17496;SDS011;62150;43.582;1.456;2023-02-26T08:06:14;7.17;;;2.63;;
17496;SDS011;62150;43.582;1.456;2023-02-26T08:08:42;6.00;;;2.47;;
17496;SDS011;62150;43.582;1.456;2023-02-26T08:11:09;6.17;;;2.30;;
17496;SDS011;62150;43.582;1.456;2023-02-26T08:13:37;5.37;;;2.50;;
17496;SDS011;62150;43.582;1.456;2023-02-26T08:16:04;5.63;;;2.50;;
17496;SDS011;62150;43.582;1.456;2023-02-26T08:18:32;5.43;;;2.40;;
17496;SDS011;62150;43.582;1.456;2023-02-26T08:21:01;5.83;;;2.40;;
17496;SDS011;62150;43.582;1.456;2023-02-26T08:23:28;5.53;;;2.23;;
17496;SDS011;62150;43.582;1.456;2023-02-26T08:26:00;7.90;;;2.97;;
17496;SDS011;62150;43.582;1.456;2023-02-26T08:28:28;6.23;;;2.33;;
17496;SDS011;62150;43.582;1.456;2023-02-26T08:30:57;7.90;;;2.50;;
17496;SDS011;62150;43.582;1.456;2023-02-26T08:33:25;8.23;;;2.97;;
17496;SDS011;62150;43.582;1.456;2023-02-26T08:35:52;6.30;;;2.50;;
17496;SDS011;62150;43.582;1.456;2023-02-26T08:38:24;7.47;;;2.73;;
17496;SDS011;62150;43.582;1.456;2023-02-26T08:40:52;5.33;;;2.30;;
17496;SDS011;62150;43.582;1.456;2023-02-26T08:43:20;6.70;;;2.83;;
17496;SDS011;62150;43.582;1.456;2023-02-26T08:45:50;5.10;;;2.60;;
17496;SDS011;62150;43.582;1.456;2023-02-26T08:48:18;4.90;;;2.60;;
17496;SDS011;62150;43.582;1.456;2023-02-26T08:50:45;7.00;;;2.50;;
17496;SDS011;62150;43.582;1.456;2023-02-26T08:53:13;7.00;;;2.33;;
17496;SDS011;62150;43.582;1.456;2023-02-26T08:55:42;8.33;;;2.60;;
17496;SDS011;62150;43.582;1.456;2023-02-26T08:58:12;8.37;;;2.80;;
17496;SDS011;62150;43.582;1.456;2023-02-26T09:00:40;7.97;;;2.87;;
17496;SDS011;62150;43.582;1.456;2023-02-26T09:03:07;7.47;;;2.73;;
17496;SDS011;62150;43.582;1.456;2023-02-26T09:05:35;4.30;;;2.43;;
17496;SDS011;62150;43.582;1.456;2023-02-26T09:08:03;6.87;;;2.63;;
17496;SDS011;62150;43.582;1.456;2023-02-26T09:10:30;4.67;;;2.70;;
17496;SDS011;62150;43.582;1.456;2023-02-26T09:12:59;5.67;;;2.40;;
17496;SDS011;62150;43.582;1.456;2023-02-26T09:15:27;6.87;;;2.90;;
17496;SDS011;62150;43.582;1.456;2023-02-26T09:17:54;6.10;;;2.50;;
17496;SDS011;62150;43.582;1.456;2023-02-26T09:20:22;6.33;;;2.40;;
17496;SDS011;62150;43.582;1.456;2023-02-26T09:22:49;7.77;;;2.90;;
17496;SDS011;62150;43.582;1.456;2023-02-26T09:25:17;6.33;;;2.57;;
17496;SDS011;62150;43.582;1.456;2023-02-26T09:27:45;6.63;;;2.70;;
17496;SDS011;62150;43.582;1.456;2023-02-26T09:30:14;6.57;;;2.40;;
17496;SDS011;62150;43.582;1.456;2023-02-26T09:32:41;7.97;;;2.77;;
17496;SDS011;62150;43.582;1.456;2023-02-26T09:35:09;7.57;;;2.60;;
17496;SDS011;62150;43.582;1.456;2023-02-26T09:37:36;6.33;;;2.50;;
17496;SDS011;62150;43.582;1.456;2023-02-26T09:40:05;6.50;;;2.57;;
17496;SDS011;62150;43.582;1.456;2023-02-26T09:42:42;6.33;;;2.37;;
17496;SDS011;62150;43.582;1.456;2023-02-26T09:45:21;7.50;;;2.77;;
17496;SDS011;62150;43.582;1.456;2023-02-26T09:47:54;6.83;;;2.60;;
17496;SDS011;62150;43.582;1.456;2023-02-26T09:50:23;8.17;;;2.87;;
17496;SDS011;62150;43.582;1.456;2023-02-26T09:52:55;9.50;;;2.77;;
17496;SDS011;62150;43.582;1.456;2023-02-26T09:55:29;6.80;;;2.80;;
17496;SDS011;62150;43.582;1.456;2023-02-26T09:58:04;5.37;;;2.50;;
17496;SDS011;62150;43.582;1.456;2023-02-26T10:00:40;6.80;;;2.80;;
17496;SDS011;62150;43.582;1.456;2023-02-26T10:03:18;7.23;;;2.53;;
17496;SDS011;62150;43.582;1.456;2023-02-26T10:06:00;6.43;;;2.70;;
17496;SDS011;62150;43.582;1.456;2023-02-26T10:08:46;8.40;;;2.70;;
17496;SDS011;62150;43.582;1.456;2023-02-26T10:11:25;5.80;;;2.80;;
17496;SDS011;62150;43.582;1.456;2023-02-26T10:13:59;7.27;;;3.20;;
17496;SDS011;62150;43.582;1.456;2023-02-26T10:16:33;7.40;;;2.83;;
17496;SDS011;62150;43.582;1.456;2023-02-26T10:19:05;9.67;;;3.10;;
17496;SDS011;62150;43.582;1.456;2023-02-26T10:21:39;7.50;;;3.33;;
17496;SDS011;62150;43.582;1.456;2023-02-26T10:24:12;7.13;;;2.90;;
17496;SDS011;62150;43.582;1.456;2023-02-26T10:26:47;8.03;;;3.20;;
17496;SDS011;62150;43.582;1.456;2023-02-26T10:29:26;9.50;;;3.70;;
17496;SDS011;62150;43.582;1.456;2023-02-26T10:32:04;7.37;;;3.20;;
17496;SDS011;62150;43.582;1.456;2023-02-26T10:34:46;7.47;;;3.50;;
17496;SDS011;62150;43.582;1.456;2023-02-26T10:37:18;9.33;;;3.70;;
17496;SDS011;62150;43.582;1.456;2023-02-26T10:39:50;7.83;;;3.10;;
17496;SDS011;62150;43.582;1.456;2023-02-26T10:42:26;9.60;;;3.67;;
17496;SDS011;62150;43.582;1.456;2023-02-26T10:45:02;7.77;;;3.13;;
17496;SDS011;62150;43.582;1.456;2023-02-26T10:47:42;9.67;;;4.20;;
17496;SDS011;62150;43.582;1.456;2023-02-26T10:50:15;8.90;;;3.30;;
17496;SDS011;62150;43.582;1.456;2023-02-26T10:52:45;10.43;;;3.20;;
17496;SDS011;62150;43.582;1.456;2023-02-26T10:55:29;9.53;;;3.43;;
17496;SDS011;62150;43.582;1.456;2023-02-26T10:58:05;8.23;;;3.30;;
17496;SDS011;62150;43.582;1.456;2023-02-26T11:00:38;10.40;;;3.90;;
17496;SDS011;62150;43.582;1.456;2023-02-26T11:03:09;9.00;;;3.70;;
17496;SDS011;62150;43.582;1.456;2023-02-26T11:05:41;12.20;;;4.27;;
17496;SDS011;62150;43.582;1.456;2023-02-26T11:08:10;11.63;;;4.17;;
17496;SDS011;62150;43.582;1.456;2023-02-26T11:10:43;9.27;;;3.80;;
17496;SDS011;62150;43.582;1.456;2023-02-26T11:13:13;10.03;;;4.30;;
17496;SDS011;62150;43.582;1.456;2023-02-26T11:15:47;8.07;;;3.80;;
17496;SDS011;62150;43.582;1.456;2023-02-26T11:18:20;8.53;;;3.90;;
17496;SDS011;62150;43.582;1.456;2023-02-26T11:20:52;8.30;;;3.90;;
17496;SDS011;62150;43.582;1.456;2023-02-26T11:23:23;10.97;;;4.10;;
17496;SDS011;62150;43.582;1.456;2023-02-26T11:25:56;10.10;;;3.70;;
17496;SDS011;62150;43.582;1.456;2023-02-26T11:28:30;8.73;;;3.90;;
17496;SDS011;62150;43.582;1.456;2023-02-26T11:31:01;7.50;;;3.30;;
17496;SDS011;62150;43.582;1.456;2023-02-26T11:33:36;9.53;;;3.80;;
17496;SDS011;62150;43.582;1.456;2023-02-26T11:36:07;8.97;;;3.57;;
17496;SDS011;62150;43.582;1.456;2023-02-26T11:38:38;9.93;;;3.63;;
17496;SDS011;62150;43.582;1.456;2023-02-26T11:41:05;11.23;;;4.27;;
17496;SDS011;62150;43.582;1.456;2023-02-26T11:43:35;8.20;;;3.40;;
17496;SDS011;62150;43.582;1.456;2023-02-26T11:46:07;11.30;;;4.10;;
17496;SDS011;62150;43.582;1.456;2023-02-26T11:48:39;10.07;;;3.57;;
17496;SDS011;62150;43.582;1.456;2023-02-26T11:51:11;9.70;;;3.63;;
17496;SDS011;62150;43.582;1.456;2023-02-26T11:53:42;6.80;;;3.50;;
17496;SDS011;62150;43.582;1.456;2023-02-26T11:56:24;9.93;;;3.60;;
17496;SDS011;62150;43.582;1.456;2023-02-26T11:58:54;9.47;;;3.60;;
17496;SDS011;62150;43.582;1.456;2023-02-26T12:01:27;9.47;;;3.70;;
17496;SDS011;62150;43.582;1.456;2023-02-26T12:03:58;11.73;;;3.77;;
17496;SDS011;62150;43.582;1.456;2023-02-26T12:06:28;9.57;;;3.70;;
17496;SDS011;62150;43.582;1.456;2023-02-26T12:08:55;7.33;;;3.60;;
17496;SDS011;62150;43.582;1.456;2023-02-26T12:11:34;9.40;;;3.90;;
17496;SDS011;62150;43.582;1.456;2023-02-26T12:14:34;10.20;;;3.87;;
17496;SDS011;62150;43.582;1.456;2023-02-26T12:17:16;9.17;;;3.60;;
17496;SDS011;62150;43.582;1.456;2023-02-26T12:20:06;9.67;;;3.97;;
17496;SDS011;62150;43.582;1.456;2023-02-26T12:22:48;10.53;;;4.13;;
17496;SDS011;62150;43.582;1.456;2023-02-26T12:25:26;8.73;;;3.43;;
17496;SDS011;62150;43.582;1.456;2023-02-26T12:28:12;7.00;;;3.43;;
17496;SDS011;62150;43.582;1.456;2023-02-26T12:31:01;7.03;;;3.50;;
17496;SDS011;62150;43.582;1.456;2023-02-26T12:33:51;8.40;;;3.40;;
17496;SDS011;62150;43.582;1.456;2023-02-26T12:36:32;8.07;;;3.50;;
17496;SDS011;62150;43.582;1.456;2023-02-26T12:39:14;7.57;;;3.43;;
17496;SDS011;62150;43.582;1.456;2023-02-26T12:42:01;8.97;;;3.73;;
17496;SDS011;62150;43.582;1.456;2023-02-26T12:44:43;6.97;;;3.30;;
17496;SDS011;62150;43.582;1.456;2023-02-26T12:47:29;8.40;;;3.40;;
17496;SDS011;62150;43.582;1.456;2023-02-26T12:50:08;9.50;;;3.73;;
17496;SDS011;62150;43.582;1.456;2023-02-26T12:53:31;8.87;;;3.57;;
17496;SDS011;62150;43.582;1.456;2023-02-26T12:56:17;10.73;;;4.10;;
17496;SDS011;62150;43.582;1.456;2023-02-26T12:59:17;10.37;;;4.20;;
17496;SDS011;62150;43.582;1.456;2023-02-26T13:02:03;9.97;;;3.90;;
17496;SDS011;62150;43.582;1.456;2023-02-26T13:04:54;8.80;;;3.77;;
17496;SDS011;62150;43.582;1.456;2023-02-26T13:07:48;8.63;;;3.70;;
17496;SDS011;62150;43.582;1.456;2023-02-26T13:10:36;8.20;;;3.50;;
17496;SDS011;62150;43.582;1.456;2023-02-26T13:13:16;9.90;;;3.73;;
17496;SDS011;62150;43.582;1.456;2023-02-26T13:16:07;10.60;;;3.87;;
17496;SDS011;62150;43.582;1.456;2023-02-26T13:18:47;8.37;;;3.80;;
17496;SDS011;62150;43.582;1.456;2023-02-26T13:21:23;10.00;;;4.07;;
17496;SDS011;62150;43.582;1.456;2023-02-26T13:23:55;7.40;;;3.60;;
17496;SDS011;62150;43.582;1.456;2023-02-26T13:26:31;8.77;;;3.73;;
17496;SDS011;62150;43.582;1.456;2023-02-26T13:29:01;10.57;;;4.20;;
17496;SDS011;62150;43.582;1.456;2023-02-26T13:31:34;8.63;;;3.80;;
17496;SDS011;62150;43.582;1.456;2023-02-26T13:34:10;8.43;;;3.80;;
17496;SDS011;62150;43.582;1.456;2023-02-26T13:36:41;8.83;;;3.80;;
17496;SDS011;62150;43.582;1.456;2023-02-26T13:39:17;7.80;;;3.37;;
17496;SDS011;62150;43.582;1.456;2023-02-26T13:42:00;5.50;;;2.70;;
17496;SDS011;62150;43.582;1.456;2023-02-26T13:44:38;6.07;;;2.87;;
17496;SDS011;62150;43.582;1.456;2023-02-26T13:47:19;4.03;;;2.50;;
17496;SDS011;62150;43.582;1.456;2023-02-26T13:50:13;5.57;;;2.57;;
17496;SDS011;62150;43.582;1.456;2023-02-26T13:52:55;4.20;;;2.43;;
17496;SDS011;62150;43.582;1.456;2023-02-26T13:55:37;4.77;;;2.27;;
17496;SDS011;62150;43.582;1.456;2023-02-26T13:58:17;4.67;;;2.13;;
17496;SDS011;62150;43.582;1.456;2023-02-26T14:00:57;5.07;;;2.20;;
17496;SDS011;62150;43.582;1.456;2023-02-26T14:03:30;4.37;;;1.80;;
17496;SDS011;62150;43.582;1.456;2023-02-26T14:06:06;2.70;;;1.70;;
17496;SDS011;62150;43.582;1.456;2023-02-26T14:08:48;3.47;;;1.80;;
17496;SDS011;62150;43.582;1.456;2023-02-26T14:11:25;3.97;;;1.70;;
17496;SDS011;62150;43.582;1.456;2023-02-26T14:14:22;2.60;;;1.70;;
17496;SDS011;62150;43.582;1.456;2023-02-26T14:17:16;3.53;;;1.70;;
17496;SDS011;62150;43.582;1.456;2023-02-26T14:20:13;3.97;;;1.70;;
17496;SDS011;62150;43.582;1.456;2023-02-26T14:22:46;3.00;;;1.80;;
17496;SDS011;62150;43.582;1.456;2023-02-26T14:25:18;2.53;;;1.73;;
17496;SDS011;62150;43.582;1.456;2023-02-26T14:27:50;2.73;;;1.60;;
17496;SDS011;62150;43.582;1.456;2023-02-26T14:30:39;3.30;;;1.90;;
17496;SDS011;62150;43.582;1.456;2023-02-26T14:33:14;4.23;;;1.80;;
17496;SDS011;62150;43.582;1.456;2023-02-26T14:35:44;3.77;;;2.00;;
17496;SDS011;62150;43.582;1.456;2023-02-26T14:38:17;1.90;;;1.70;;
17496;SDS011;62150;43.582;1.456;2023-02-26T14:40:53;4.43;;;1.90;;
17496;SDS011;62150;43.582;1.456;2023-02-26T14:43:29;4.53;;;2.10;;
17496;SDS011;62150;43.582;1.456;2023-02-26T14:46:03;5.17;;;2.20;;
17496;SDS011;62150;43.582;1.456;2023-02-26T14:48:32;4.83;;;2.40;;
17496;SDS011;62150;43.582;1.456;2023-02-26T14:51:04;5.03;;;2.23;;
17496;SDS011;62150;43.582;1.456;2023-02-26T14:53:45;4.27;;;1.97;;
17496;SDS011;62150;43.582;1.456;2023-02-26T14:56:31;3.50;;;2.20;;
17496;SDS011;62150;43.582;1.456;2023-02-26T14:59:13;3.23;;;1.90;;
17496;SDS011;62150;43.582;1.456;2023-02-26T15:01:52;4.60;;;2.30;;
17496;SDS011;62150;43.582;1.456;2023-02-26T15:04:34;3.20;;;1.90;;
17496;SDS011;62150;43.582;1.456;2023-02-26T15:07:32;5.70;;;2.20;;
17496;SDS011;62150;43.582;1.456;2023-02-26T15:10:12;3.97;;;2.00;;
17496;SDS011;62150;43.582;1.456;2023-02-26T15:13:00;4.40;;;1.90;;
17496;SDS011;62150;43.582;1.456;2023-02-26T15:15:43;4.33;;;2.10;;
17496;SDS011;62150;43.582;1.456;2023-02-26T15:18:24;3.27;;;1.70;;
17496;SDS011;62150;43.582;1.456;2023-02-26T15:21:12;3.73;;;2.07;;
17496;SDS011;62150;43.582;1.456;2023-02-26T15:23:48;3.47;;;1.80;;
17496;SDS011;62150;43.582;1.456;2023-02-26T15:26:18;3.83;;;1.77;;
17496;SDS011;62150;43.582;1.456;2023-02-26T15:28:48;2.73;;;1.70;;
17496;SDS011;62150;43.582;1.456;2023-02-26T15:31:18;4.37;;;2.00;;
17496;SDS011;62150;43.582;1.456;2023-02-26T15:33:55;2.43;;;1.80;;
17496;SDS011;62150;43.582;1.456;2023-02-26T15:36:23;2.97;;;1.50;;
17496;SDS011;62150;43.582;1.456;2023-02-26T15:38:53;3.90;;;1.80;;
17496;SDS011;62150;43.582;1.456;2023-02-26T15:41:21;3.40;;;1.70;;
17496;SDS011;62150;43.582;1.456;2023-02-26T15:43:56;3.20;;;1.83;;
17496;SDS011;62150;43.582;1.456;2023-02-26T15:46:27;3.10;;;1.60;;
17496;SDS011;62150;43.582;1.456;2023-02-26T15:49:00;5.07;;;1.97;;
17496;SDS011;62150;43.582;1.456;2023-02-26T15:51:32;3.13;;;1.70;;
17496;SDS011;62150;43.582;1.456;2023-02-26T15:54:00;3.87;;;1.80;;
17496;SDS011;62150;43.582;1.456;2023-02-26T15:56:31;1.90;;;1.70;;
17496;SDS011;62150;43.582;1.456;2023-02-26T15:59:03;2.67;;;1.80;;
17496;SDS011;62150;43.582;1.456;2023-02-26T16:01:38;2.57;;;1.80;;
17496;SDS011;62150;43.582;1.456;2023-02-26T16:04:11;2.80;;;1.67;;
17496;SDS011;62150;43.582;1.456;2023-02-26T16:06:40;4.77;;;1.90;;
17496;SDS011;62150;43.582;1.456;2023-02-26T16:09:14;3.97;;;2.00;;
17496;SDS011;62150;43.582;1.456;2023-02-26T16:11:43;4.83;;;1.93;;
17496;SDS011;62150;43.582;1.456;2023-02-26T16:14:14;3.30;;;1.80;;
17496;SDS011;62150;43.582;1.456;2023-02-26T16:16:47;4.40;;;2.03;;
17496;SDS011;62150;43.582;1.456;2023-02-26T16:19:19;3.30;;;1.90;;
17496;SDS011;62150;43.582;1.456;2023-02-26T16:21:53;4.43;;;1.70;;
17496;SDS011;62150;43.582;1.456;2023-02-26T16:24:22;5.43;;;1.90;;
17496;SDS011;62150;43.582;1.456;2023-02-26T16:26:51;3.23;;;1.80;;
17496;SDS011;62150;43.582;1.456;2023-02-26T16:29:22;3.43;;;2.00;;
17496;SDS011;62150;43.582;1.456;2023-02-26T16:31:52;2.63;;;1.80;;
17496;SDS011;62150;43.582;1.456;2023-02-26T16:34:26;4.20;;;1.93;;
17496;SDS011;62150;43.582;1.456;2023-02-26T16:37:08;3.17;;;1.80;;
17496;SDS011;62150;43.582;1.456;2023-02-26T16:39:45;3.80;;;1.90;;
17496;SDS011;62150;43.582;1.456;2023-02-26T16:42:19;4.10;;;2.00;;
17496;SDS011;62150;43.582;1.456;2023-02-26T16:45:00;3.23;;;1.80;;
17496;SDS011;62150;43.582;1.456;2023-02-26T16:47:40;4.27;;;1.87;;
17496;SDS011;62150;43.582;1.456;2023-02-26T16:50:14;3.10;;;1.87;;
17496;SDS011;62150;43.582;1.456;2023-02-26T16:52:45;4.83;;;2.10;;
17496;SDS011;62150;43.582;1.456;2023-02-26T16:55:17;4.57;;;1.80;;
17496;SDS011;62150;43.582;1.456;2023-02-26T16:57:45;5.00;;;2.20;;
17496;SDS011;62150;43.582;1.456;2023-02-26T17:00:14;4.50;;;1.97;;
17496;SDS011;62150;43.582;1.456;2023-02-26T17:02:54;4.00;;;2.20;;
17496;SDS011;62150;43.582;1.456;2023-02-26T17:05:26;3.73;;;2.00;;
17496;SDS011;62150;43.582;1.456;2023-02-26T17:07:59;7.80;;;2.30;;
17496;SDS011;62150;43.582;1.456;2023-02-26T17:10:33;5.40;;;2.10;;
17496;SDS011;62150;43.582;1.456;2023-02-26T17:13:12;6.23;;;2.37;;
17496;SDS011;62150;43.582;1.456;2023-02-26T17:15:43;4.10;;;2.13;;
17496;SDS011;62150;43.582;1.456;2023-02-26T17:18:11;4.23;;;1.83;;
17496;SDS011;62150;43.582;1.456;2023-02-26T17:20:41;4.97;;;2.30;;
17496;SDS011;62150;43.582;1.456;2023-02-26T17:23:10;6.63;;;2.30;;
17496;SDS011;62150;43.582;1.456;2023-02-26T17:25:42;5.23;;;2.10;;
17496;SDS011;62150;43.582;1.456;2023-02-26T17:28:15;3.57;;;2.10;;
17496;SDS011;62150;43.582;1.456;2023-02-26T17:30:46;5.00;;;2.10;;
17496;SDS011;62150;43.582;1.456;2023-02-26T17:33:14;6.53;;;2.73;;
17496;SDS011;62150;43.582;1.456;2023-02-26T17:35:43;5.17;;;2.40;;
17496;SDS011;62150;43.582;1.456;2023-02-26T17:38:10;5.97;;;2.23;;
17496;SDS011;62150;43.582;1.456;2023-02-26T17:40:40;4.63;;;2.03;;
17496;SDS011;62150;43.582;1.456;2023-02-26T17:43:11;3.00;;;1.90;;
17496;SDS011;62150;43.582;1.456;2023-02-26T17:45:40;7.17;;;2.50;;
17496;SDS011;62150;43.582;1.456;2023-02-26T17:48:09;5.30;;;2.47;;
17496;SDS011;62150;43.582;1.456;2023-02-26T17:50:39;4.03;;;2.00;;
17496;SDS011;62150;43.582;1.456;2023-02-26T17:53:12;5.23;;;2.43;;
17496;SDS011;62150;43.582;1.456;2023-02-26T17:55:40;5.80;;;2.70;;
17496;SDS011;62150;43.582;1.456;2023-02-26T17:58:11;7.67;;;2.60;;
17496;SDS011;62150;43.582;1.456;2023-02-26T18:00:42;6.43;;;2.20;;
17496;SDS011;62150;43.582;1.456;2023-02-26T18:03:13;5.20;;;2.23;;
17496;SDS011;62150;43.582;1.456;2023-02-26T18:05:42;4.77;;;2.13;;
17496;SDS011;62150;43.582;1.456;2023-02-26T18:08:13;5.10;;;2.27;;
17496;SDS011;62150;43.582;1.456;2023-02-26T18:10:46;4.40;;;2.50;;
17496;SDS011;62150;43.582;1.456;2023-02-26T18:13:13;5.57;;;2.20;;
17496;SDS011;62150;43.582;1.456;2023-02-26T18:15:41;4.67;;;2.40;;
17496;SDS011;62150;43.582;1.456;2023-02-26T18:18:09;5.27;;;2.20;;
17496;SDS011;62150;43.582;1.456;2023-02-26T18:20:38;3.80;;;2.10;;
17496;SDS011;62150;43.582;1.456;2023-02-26T18:23:07;5.07;;;2.10;;
17496;SDS011;62150;43.582;1.456;2023-02-26T18:25:38;6.50;;;2.80;;
17496;SDS011;62150;43.582;1.456;2023-02-26T18:28:08;5.50;;;2.50;;
17496;SDS011;62150;43.582;1.456;2023-02-26T18:30:39;4.90;;;2.20;;
17496;SDS011;62150;43.582;1.456;2023-02-26T18:33:08;7.83;;;2.60;;
17496;SDS011;62150;43.582;1.456;2023-02-26T18:35:36;4.00;;;1.90;;
17496;SDS011;62150;43.582;1.456;2023-02-26T18:38:11;3.40;;;2.13;;
17496;SDS011;62150;43.582;1.456;2023-02-26T18:40:40;7.50;;;2.90;;
17496;SDS011;62150;43.582;1.456;2023-02-26T18:43:08;6.43;;;2.73;;
17496;SDS011;62150;43.582;1.456;2023-02-26T18:45:37;5.67;;;2.27;;
17496;SDS011;62150;43.582;1.456;2023-02-26T18:48:04;6.37;;;2.60;;
17496;SDS011;62150;43.582;1.456;2023-02-26T18:50:33;6.47;;;2.43;;
17496;SDS011;62150;43.582;1.456;2023-02-26T18:53:01;6.43;;;2.37;;
17496;SDS011;62150;43.582;1.456;2023-02-26T18:55:30;5.73;;;2.70;;
17496;SDS011;62150;43.582;1.456;2023-02-26T18:57:58;7.27;;;2.70;;
17496;SDS011;62150;43.582;1.456;2023-02-26T19:00:25;5.20;;;2.30;;
17496;SDS011;62150;43.582;1.456;2023-02-26T19:02:54;5.87;;;2.70;;
17496;SDS011;62150;43.582;1.456;2023-02-26T19:05:22;5.13;;;2.50;;
17496;SDS011;62150;43.582;1.456;2023-02-26T19:07:50;4.87;;;2.40;;
17496;SDS011;62150;43.582;1.456;2023-02-26T19:10:20;5.07;;;2.50;;
17496;SDS011;62150;43.582;1.456;2023-02-26T19:12:49;8.30;;;2.80;;
17496;SDS011;62150;43.582;1.456;2023-02-26T19:15:17;7.77;;;2.80;;
17496;SDS011;62150;43.582;1.456;2023-02-26T19:17:44;5.47;;;2.70;;
17496;SDS011;62150;43.582;1.456;2023-02-26T19:20:12;6.77;;;2.70;;
17496;SDS011;62150;43.582;1.456;2023-02-26T19:22:40;5.97;;;3.00;;
17496;SDS011;62150;43.582;1.456;2023-02-26T19:25:08;5.63;;;2.50;;
17496;SDS011;62150;43.582;1.456;2023-02-26T19:27:36;5.93;;;2.73;;
17496;SDS011;62150;43.582;1.456;2023-02-26T19:30:06;5.40;;;2.60;;
17496;SDS011;62150;43.582;1.456;2023-02-26T19:32:34;6.83;;;2.90;;
17496;SDS011;62150;43.582;1.456;2023-02-26T19:35:01;6.77;;;2.67;;
17496;SDS011;62150;43.582;1.456;2023-02-26T19:37:30;8.60;;;3.23;;
17496;SDS011;62150;43.582;1.456;2023-02-26T19:39:58;8.67;;;3.13;;
17496;SDS011;62150;43.582;1.456;2023-02-26T19:42:25;7.90;;;2.83;;
17496;SDS011;62150;43.582;1.456;2023-02-26T19:44:53;7.13;;;2.83;;
17496;SDS011;62150;43.582;1.456;2023-02-26T19:47:22;5.90;;;2.87;;
17496;SDS011;62150;43.582;1.456;2023-02-26T19:49:49;6.97;;;2.97;;
17496;SDS011;62150;43.582;1.456;2023-02-26T19:52:17;8.83;;;3.33;;
17496;SDS011;62150;43.582;1.456;2023-02-26T19:54:45;6.43;;;3.00;;
17496;SDS011;62150;43.582;1.456;2023-02-26T19:57:12;5.53;;;2.60;;
17496;SDS011;62150;43.582;1.456;2023-02-26T19:59:40;7.17;;;3.00;;
17496;SDS011;62150;43.582;1.456;2023-02-26T20:02:07;5.70;;;2.90;;
17496;SDS011;62150;43.582;1.456;2023-02-26T20:04:36;8.57;;;3.30;;
17496;SDS011;62150;43.582;1.456;2023-02-26T20:07:04;6.80;;;3.33;;
17496;SDS011;62150;43.582;1.456;2023-02-26T20:09:32;6.03;;;2.80;;
17496;SDS011;62150;43.582;1.456;2023-02-26T20:11:59;7.27;;;2.90;;
17496;SDS011;62150;43.582;1.456;2023-02-26T20:14:27;6.67;;;3.10;;
17496;SDS011;62150;43.582;1.456;2023-02-26T20:16:54;7.23;;;3.10;;
17496;SDS011;62150;43.582;1.456;2023-02-26T20:19:22;9.00;;;3.30;;
17496;SDS011;62150;43.582;1.456;2023-02-26T20:21:51;5.30;;;2.50;;
17496;SDS011;62150;43.582;1.456;2023-02-26T20:24:19;6.53;;;2.70;;
17496;SDS011;62150;43.582;1.456;2023-02-26T20:26:47;6.63;;;2.73;;
17496;SDS011;62150;43.582;1.456;2023-02-26T20:29:15;6.17;;;2.87;;
17496;SDS011;62150;43.582;1.456;2023-02-26T20:31:43;7.93;;;2.80;;
17496;SDS011;62150;43.582;1.456;2023-02-26T20:34:13;6.27;;;2.80;;
17496;SDS011;62150;43.582;1.456;2023-02-26T20:36:42;6.73;;;2.70;;
17496;SDS011;62150;43.582;1.456;2023-02-26T20:39:12;6.07;;;2.90;;
17496;SDS011;62150;43.582;1.456;2023-02-26T20:41:42;6.07;;;2.70;;
17496;SDS011;62150;43.582;1.456;2023-02-26T20:44:09;5.87;;;2.97;;
17496;SDS011;62150;43.582;1.456;2023-02-26T20:46:37;5.00;;;2.60;;
17496;SDS011;62150;43.582;1.456;2023-02-26T20:49:04;5.63;;;2.70;;
17496;SDS011;62150;43.582;1.456;2023-02-26T20:51:35;6.83;;;2.73;;
17496;SDS011;62150;43.582;1.456;2023-02-26T20:54:04;4.63;;;2.40;;
17496;SDS011;62150;43.582;1.456;2023-02-26T20:56:33;5.90;;;2.80;;
17496;SDS011;62150;43.582;1.456;2023-02-26T20:59:01;6.43;;;3.00;;
17496;SDS011;62150;43.582;1.456;2023-02-26T21:01:28;7.80;;;3.27;;
17496;SDS011;62150;43.582;1.456;2023-02-26T21:03:59;7.33;;;2.97;;
17496;SDS011;62150;43.582;1.456;2023-02-26T21:06:28;7.20;;;3.30;;
17496;SDS011;62150;43.582;1.456;2023-02-26T21:08:56;6.97;;;3.30;;
17496;SDS011;62150;43.582;1.456;2023-02-26T21:11:25;7.37;;;3.27;;
17496;SDS011;62150;43.582;1.456;2023-02-26T21:13:56;6.47;;;2.90;;
17496;SDS011;62150;43.582;1.456;2023-02-26T21:16:24;7.60;;;3.10;;
17496;SDS011;62150;43.582;1.456;2023-02-26T21:18:52;6.63;;;3.20;;
17496;SDS011;62150;43.582;1.456;2023-02-26T21:21:19;8.50;;;3.40;;
17496;SDS011;62150;43.582;1.456;2023-02-26T21:23:50;6.03;;;2.70;;
17496;SDS011;62150;43.582;1.456;2023-02-26T21:26:18;6.67;;;2.87;;
17496;SDS011;62150;43.582;1.456;2023-02-26T21:28:46;7.00;;;3.00;;
17496;SDS011;62150;43.582;1.456;2023-02-26T21:31:15;7.80;;;3.00;;
17496;SDS011;62150;43.582;1.456;2023-02-26T21:33:45;6.47;;;2.73;;
17496;SDS011;62150;43.582;1.456;2023-02-26T21:36:13;5.77;;;3.10;;
17496;SDS011;62150;43.582;1.456;2023-02-26T21:38:41;5.33;;;2.70;;
17496;SDS011;62150;43.582;1.456;2023-02-26T21:41:09;6.60;;;3.00;;
17496;SDS011;62150;43.582;1.456;2023-02-26T21:43:36;7.53;;;3.10;;
